createdAt,value
2017-08-01T00:01:52.053Z,90.13
2017-08-01T00:04:19.975Z,90.33
2017-08-01T00:06:51.828Z,84.53
2017-08-01T00:09:19.950Z,87.60
2017-08-01T00:11:48.284Z,94.13
2017-08-01T00:14:16.816Z,98.80
2017-08-01T00:16:45.885Z,90.37
2017-08-01T00:19:14.326Z,93.30
2017-08-01T00:21:42.788Z,79.23
2017-08-01T00:24:10.842Z,83.13
2017-08-01T00:26:38.762Z,94.93
2017-08-01T00:29:06.778Z,83.17
2017-08-01T00:31:35.163Z,91.47
2017-08-01T00:34:03.184Z,91.63
2017-08-01T00:36:31.205Z,84.30
2017-08-01T00:38:59.575Z,79.37
2017-08-01T00:41:27.557Z,91.63
2017-08-01T00:43:55.678Z,89.10
2017-08-01T00:46:23.850Z,87.20
2017-08-01T00:48:51.780Z,91.60
2017-08-01T00:51:20.220Z,82.60
2017-08-01T00:53:48.323Z,80.77
2017-08-01T00:56:17.319Z,88.07
2017-08-01T00:58:45.734Z,83.30
2017-08-01T01:01:27.986Z,79.83
2017-08-01T01:06:41.182Z,107.77
2017-08-01T01:09:09.237Z,95.80
2017-08-01T01:11:37.413Z,87.07
2017-08-01T01:14:06.297Z,78.43
2017-08-01T01:16:34.283Z,94.17
2017-08-01T01:19:03.499Z,78.40
2017-08-01T01:21:31.567Z,82.53
2017-08-01T01:24:00.155Z,79.40
2017-08-01T01:26:28.426Z,83.23
2017-08-01T01:28:56.510Z,76.07
2017-08-01T01:31:24.633Z,74.50
2017-08-01T01:39:28.546Z,86.17
2017-08-01T01:44:32.749Z,89.27
2017-08-01T01:49:49.251Z,81.20
2017-08-01T01:52:17.268Z,84.73
2017-08-01T01:54:45.311Z,83.60
2017-08-01T01:57:13.770Z,88.80
2017-08-01T02:02:29.107Z,90.83
2017-08-01T02:04:58.375Z,87.67
2017-08-01T02:07:26.857Z,88.73
2017-08-01T02:10:02.912Z,88.50
2017-08-01T02:12:31.298Z,91.13
2017-08-01T02:15:00.598Z,89.10
2017-08-01T02:17:28.653Z,87.73
2017-08-01T02:19:56.784Z,88.47
2017-08-01T02:22:36.204Z,92.73
2017-08-01T02:25:17.475Z,91.93
2017-08-01T02:27:45.516Z,90.00
2017-08-01T02:30:13.439Z,84.37
2017-08-01T02:32:42.422Z,87.40
2017-08-01T02:35:10.457Z,91.90
2017-08-01T02:40:26.277Z,88.47
2017-08-01T02:42:54.576Z,88.20
2017-08-01T02:45:22.602Z,93.63
2017-08-01T02:50:38.137Z,84.00
2017-08-01T02:53:06.090Z,84.53
2017-08-01T02:55:34.192Z,83.03
2017-08-01T02:58:02.287Z,90.83
2017-08-01T03:08:53.458Z,84.73
2017-08-01T03:11:21.419Z,88.67
2017-08-01T03:19:37.918Z,84.47
2017-08-01T03:27:58.455Z,81.57
2017-08-01T03:30:26.502Z,86.30
2017-08-01T03:32:54.975Z,86.33
2017-08-01T03:35:24.547Z,90.40
2017-08-01T03:37:58.369Z,85.80
2017-08-01T03:40:45.343Z,91.83
2017-08-01T03:48:51.790Z,93.60
2017-08-01T03:51:21.048Z,87.83
2017-08-01T03:53:49.301Z,88.80
2017-08-01T03:58:56.979Z,83.53
2017-08-01T04:01:26.884Z,83.70
2017-08-01T04:03:55.376Z,91.40
2017-08-01T04:06:23.577Z,92.47
2017-08-01T04:08:52.116Z,83.13
2017-08-01T04:11:20.505Z,80.57
2017-08-01T04:13:48.712Z,90.63
2017-08-01T04:16:29.528Z,83.43
2017-08-01T04:19:01.290Z,86.40
2017-08-01T04:21:37.827Z,84.97
2017-08-01T04:24:05.830Z,89.60
2017-08-01T04:26:40.148Z,88.00
2017-08-01T04:29:08.333Z,95.30
2017-08-01T04:31:36.329Z,82.53
2017-08-01T04:34:04.334Z,96.97
2017-08-01T04:36:32.323Z,89.77
2017-08-01T04:39:00.201Z,91.40
2017-08-01T04:41:28.156Z,89.13
2017-08-01T04:44:00.355Z,92.20
2017-08-01T04:46:28.801Z,84.20
2017-08-01T04:48:56.919Z,91.03
2017-08-01T04:51:24.944Z,87.70
2017-08-01T04:53:52.998Z,82.70
2017-08-01T04:56:20.896Z,85.33
2017-08-01T04:58:49.034Z,87.93
2017-08-01T05:01:17.059Z,94.90
2017-08-01T05:03:51.486Z,89.63
2017-08-01T05:09:06.986Z,87.23
2017-08-01T05:11:35.019Z,89.30
2017-08-01T05:14:03.090Z,87.23
2017-08-01T05:16:33.227Z,83.17
2017-08-01T05:19:01.420Z,89.60
2017-08-01T05:21:36.182Z,88.87
2017-08-01T05:24:04.863Z,84.83
2017-08-01T05:26:32.780Z,86.33
2017-08-01T05:29:00.787Z,85.63
2017-08-01T05:31:28.717Z,93.97
2017-08-01T05:34:00.898Z,90.07
2017-08-01T05:36:29.146Z,88.60
2017-08-01T05:38:57.180Z,87.53
2017-08-01T05:41:25.103Z,88.53
2017-08-01T05:43:53.265Z,86.97
2017-08-01T05:46:21.465Z,83.43
2017-08-01T05:48:56.653Z,83.70
2017-08-01T05:54:30.540Z,85.03
2017-08-01T05:56:58.599Z,83.73
2017-08-01T05:59:26.898Z,85.00
2017-08-01T06:01:54.952Z,88.03
2017-08-01T06:04:23.575Z,79.27
2017-08-01T06:06:51.603Z,82.93
2017-08-01T06:11:55.610Z,83.53
2017-08-01T06:14:23.561Z,80.20
2017-08-01T06:16:51.467Z,80.77
2017-08-01T06:19:19.380Z,85.00
2017-08-01T06:21:47.562Z,79.83
2017-08-01T06:24:15.606Z,85.87
2017-08-01T06:26:43.910Z,75.70
2017-08-01T06:29:12.322Z,86.53
2017-08-01T06:31:40.506Z,84.57
2017-08-01T06:34:08.745Z,79.77
2017-08-01T06:36:36.676Z,81.23
2017-08-01T06:39:04.857Z,82.50
2017-08-01T06:41:32.804Z,88.23
2017-08-01T06:44:00.793Z,81.83
2017-08-01T06:46:28.770Z,79.53
2017-08-01T06:48:56.755Z,80.33
2017-08-01T06:51:24.989Z,75.23
2017-08-01T06:53:52.955Z,78.07
2017-08-01T06:56:20.843Z,75.53
2017-08-01T06:58:56.131Z,79.80
2017-08-01T07:01:24.329Z,91.93
2017-08-01T07:03:52.233Z,75.37
2017-08-01T07:06:20.132Z,72.70
2017-08-01T07:08:48.028Z,74.70
2017-08-01T07:11:15.964Z,80.73
2017-08-01T07:16:31.941Z,77.00
2017-08-01T07:18:59.973Z,76.37
2017-08-01T07:21:27.871Z,80.60
2017-08-01T07:23:55.996Z,76.00
2017-08-01T07:26:23.970Z,74.13
2017-08-01T07:28:52.579Z,84.13
2017-08-01T07:31:20.521Z,80.23
2017-08-01T07:33:48.952Z,76.53
2017-08-01T07:36:16.893Z,74.57
2017-08-01T07:38:44.899Z,76.73
2017-08-01T07:41:12.861Z,71.63
2017-08-01T07:43:40.741Z,71.03
2017-08-01T07:46:08.657Z,73.80
2017-08-01T07:48:36.833Z,79.53
2017-08-01T07:51:04.962Z,77.87
2017-08-01T07:53:33.382Z,81.27
2017-08-01T07:56:15.167Z,75.67
2017-08-01T07:58:43.090Z,72.37
2017-08-01T08:01:11.036Z,74.93
2017-08-01T08:03:39.060Z,77.30
2017-08-01T08:06:07.291Z,68.47
2017-08-01T08:08:35.326Z,70.80
2017-08-01T08:11:04.387Z,74.27
2017-08-01T08:13:32.548Z,73.70
2017-08-01T08:16:00.558Z,72.93
2017-08-01T08:18:28.459Z,70.60
2017-08-01T08:20:56.378Z,81.23
2017-08-01T08:23:24.271Z,71.47
2017-08-01T08:25:52.222Z,78.47
2017-08-01T08:28:20.130Z,69.87
2017-08-01T08:30:48.035Z,70.80
2017-08-01T08:33:15.937Z,75.67
2017-08-01T08:35:43.856Z,71.97
2017-08-01T08:38:11.840Z,72.40
2017-08-01T08:40:39.705Z,79.87
2017-08-01T08:43:07.648Z,84.23
2017-08-01T08:45:35.544Z,78.10
2017-08-01T08:48:03.501Z,76.73
2017-08-01T08:50:31.598Z,74.30
2017-08-01T08:52:59.790Z,71.17
2017-08-01T08:55:28.507Z,69.27
2017-08-01T08:57:56.534Z,72.57
2017-08-01T09:00:24.577Z,70.23
2017-08-01T09:02:52.495Z,79.43
2017-08-01T09:05:20.637Z,72.87
2017-08-01T09:07:48.560Z,69.57
2017-08-01T09:10:16.840Z,68.73
2017-08-01T09:12:44.958Z,75.40
2017-08-01T09:15:13.338Z,72.70
2017-08-01T09:17:41.310Z,73.07
2017-08-01T09:20:09.837Z,76.40
2017-08-01T09:22:37.867Z,69.90
2017-08-01T09:25:06.775Z,72.07
2017-08-01T09:27:34.723Z,64.57
2017-08-01T09:30:02.703Z,67.23
2017-08-01T09:32:30.667Z,63.70
2017-08-01T09:34:58.546Z,64.70
2017-08-01T09:37:26.478Z,63.90
2017-08-01T09:39:54.369Z,75.27
2017-08-01T09:42:20.985Z,67.77
2017-08-01T09:45:07.250Z,68.27
2017-08-01T09:47:33.881Z,62.20
2017-08-01T09:50:02.186Z,65.03
2017-08-01T09:52:28.830Z,63.87
2017-08-01T09:54:55.210Z,63.23
2017-08-01T09:57:23.119Z,67.13
2017-08-01T09:59:49.501Z,58.10
2017-08-01T10:02:15.851Z,62.00
2017-08-01T10:04:42.419Z,68.30
2017-08-01T10:07:22.330Z,72.57
2017-08-01T10:13:05.679Z,65.40
2017-08-01T10:18:24.891Z,61.20
2017-08-01T10:20:51.476Z,59.93
2017-08-01T10:23:20.661Z,61.60
2017-08-01T10:25:48.580Z,65.70
2017-08-01T10:28:26.645Z,57.87
2017-08-01T10:31:15.454Z,56.47
2017-08-01T10:33:42.172Z,61.73
2017-08-01T10:36:13.006Z,63.57
2017-08-01T10:38:39.860Z,57.50
2017-08-01T10:41:06.693Z,57.83
2017-08-01T10:43:36.753Z,59.83
2017-08-01T10:46:06.045Z,58.50
2017-08-01T10:48:58.883Z,57.57
2017-08-01T10:51:25.210Z,57.17
2017-08-01T10:56:44.271Z,57.53
2017-08-01T10:59:33.038Z,65.20
2017-08-01T11:01:59.523Z,63.50
2017-08-01T11:04:26.686Z,59.07
2017-08-01T11:06:57.668Z,55.33
2017-08-01T11:09:24.303Z,61.20
2017-08-01T11:11:50.750Z,59.60
2017-08-01T11:14:17.187Z,59.20
2017-08-01T11:16:44.056Z,53.67
2017-08-01T11:19:15.827Z,62.00
2017-08-01T11:21:42.212Z,57.67
2017-08-01T11:27:10.409Z,63.73
2017-08-01T11:32:28.787Z,59.53
2017-08-01T11:35:05.375Z,58.73
2017-08-01T11:37:32.063Z,66.00
2017-08-01T11:39:59.805Z,61.37
2017-08-01T11:45:24.077Z,61.07
2017-08-01T11:47:50.323Z,61.43
2017-08-01T11:50:17.470Z,61.83
2017-08-01T11:52:45.424Z,59.50
2017-08-01T11:55:11.703Z,58.90
2017-08-01T11:57:38.184Z,56.23
2017-08-01T12:00:07.556Z,62.97
2017-08-01T12:02:44.299Z,55.97
2017-08-01T12:05:10.980Z,54.70
2017-08-01T12:07:37.531Z,63.30
2017-08-01T12:12:58.607Z,56.50
2017-08-01T12:15:33.327Z,48.80
2017-08-01T12:20:52.609Z,55.47
2017-08-01T12:23:18.863Z,55.07
2017-08-01T12:25:50.849Z,56.03
2017-08-01T12:31:27.704Z,55.07
2017-08-01T12:39:57.883Z,52.67
2017-08-01T12:42:47.074Z,57.23
2017-08-01T12:45:13.567Z,52.73
2017-08-01T12:47:40.835Z,55.70
2017-08-01T12:52:45.474Z,50.83
2017-08-01T12:55:18.288Z,55.83
2017-08-01T12:58:01.679Z,62.40
2017-08-01T13:03:22.007Z,52.23
2017-08-01T13:05:49.963Z,53.30
2017-08-01T13:08:21.023Z,52.77
2017-08-01T13:10:47.395Z,62.57
2017-08-01T13:19:26.103Z,57.50
